Burbank, Ohio
Current Conditions -  °F | °C
As of 12:30 PM on Friday 19 Dec 2014 (Local Time) from KBJJ Reporting Station
Overcast Overcast  
Wind Chill: 22°   Ceiling: 1200
Heat Index: 29°   Visibility: 10mi
Dew Point: 26°   Wind: 7mph
Humidity: 89%   Direction: 300°WNW
Pressure: 30.22"   Gusts: NA
Location:  40.99°N, 81.99°W
Report Text: KBJJ 191730Z AUTO 30006KT 10SM BKN012 OVC025 M02/M03 A3022 RMK AO2 T10171033 TSNO
Loading
Personal Weather Stations






























Interactive Weather Map New forecast layout! Learn more

10-Day Weather Forecast

Advertisements
Track Severe Weather on mobile